Time;durP1;ratioP1;P1;durP2;ratioP2;P2;SDS_P1;SDS_P2;PMS_P1;PMS_P2;Temp;Humidity;BMP_temperature;BMP_pressure;BME280_temperature;BME280_humidity;BME280_pressure;Samples;Min_cycle;Max_cycle;Signal;HPM_P1;HPM_P2
2023/10/05 00:01:21;;;;;;;;;;;;;;;15.17;56.53;100099.63;5092136;28;19920;-68
2023/10/05 00:03:49;;;;;;;;;;;;;;;14.78;57.74;100099.09;5082824;28;19955;-68
2023/10/05 00:06:16;;;;;;;;;;;;;;;14.94;56.99;100094.41;5092775;28;19923;-68
2023/10/05 00:08:44;;;;;;;;;;;;;;;15.37;56.38;100091.41;5093122;28;19951;-68
2023/10/05 00:11:22;;;;;;;;;;;;;;;15.55;55.13;100095.63;5091274;28;20336;-68
2023/10/05 00:13:48;;;;;;;;;;;;;;;14.84;57.08;100100.50;5091856;28;19923;-68
2023/10/05 00:16:20;;;;;;;;;;;;;;;14.71;57.95;100094.81;5073854;28;19917;-68
2023/10/05 00:18:45;;;;;;;;;;;;;;;14.89;57.52;100100.28;5074297;28;19967;-68
2023/10/05 00:21:11;;;;;;;;;;;;;;;15.02;57.49;100110.41;5090606;28;19951;-68
2023/10/05 00:23:36;;;;;;;;;;;;;;;14.98;57.95;100101.03;5074336;28;19918;-68
2023/10/05 00:26:02;;;;;;;;;;;;;;;14.82;58.58;100106.50;5074334;28;20003;-68
2023/10/05 00:28:29;;;;;;;;;;;;;;;14.65;59.82;100099.03;5074084;28;20351;-68
2023/10/05 00:30:54;;;;;;;;;;;;;;;14.87;59.14;100108.28;5072890;28;19978;-68
2023/10/05 00:33:20;;;;;;;;;;;;;;;14.80;59.60;100108.00;5091428;28;19916;-68
2023/10/05 00:35:46;;;;;;;;;;;;;;;14.93;59.15;100106.06;5092665;28;19955;-68
2023/10/05 00:38:12;;;;;;;;;;;;;;;15.15;58.36;100101.97;5092122;28;19969;-68
2023/10/05 00:41:01;;;;;;;;;;;;;;;15.32;57.54;100111.34;5094205;28;19916;-68
2023/10/05 00:43:27;;;;;;;;;;;;;;;15.52;56.55;100112.44;5075331;28;19923;-68
2023/10/05 00:45:53;;;;;;;;;;;;;;;15.68;55.93;100109.69;5072592;28;19917;-68
2023/10/05 00:48:54;;;;;;;;;;;;;;;15.66;55.45;100112.06;5073647;28;20472;-68
2023/10/05 00:51:23;;;;;;;;;;;;;;;15.72;55.09;100108.63;5082773;28;19984;-68
2023/10/05 00:53:50;;;;;;;;;;;;;;;15.75;54.89;100107.13;5074625;28;20398;-68
2023/10/05 00:56:16;;;;;;;;;;;;;;;15.61;55.05;100109.50;5076609;28;20322;-68
2023/10/05 00:58:46;;;;;;;;;;;;;;;15.56;55.33;100117.00;5072031;28;19923;-68
2023/10/05 01:01:15;;;;;;;;;;;;;;;15.74;54.86;100105.47;5078072;28;19927;-68
2023/10/05 01:04:17;;;;;;;;;;;;;;;15.65;55.29;100107.59;5090938;28;19916;-68
2023/10/05 01:06:47;;;;;;;;;;;;;;;15.57;55.96;100110.19;5074355;28;19923;-68
2023/10/05 01:12:33;;;;;;;;;;;;;;;15.78;55.94;100112.03;5082510;28;19924;-68
2023/10/05 01:14:51;;;;;;;;;;;;;;;15.75;56.10;100107.13;5075377;28;19970;-68
2023/10/05 01:17:20;;;;;;;;;;;;;;;15.39;57.57;100120.91;5071612;28;20358;-68
2023/10/05 01:19:46;;;;;;;;;;;;;;;14.95;59.32;100120.59;5071697;28;19920;-69
2023/10/05 01:22:14;;;;;;;;;;;;;;;14.92;58.83;100105.22;5089830;28;20035;-68
2023/10/05 01:24:41;;;;;;;;;;;;;;;15.15;58.34;100113.22;5089078;28;20011;-68
2023/10/05 01:27:07;;;;;;;;;;;;;;;15.08;58.34;100115.78;5077233;28;19917;-68
2023/10/05 01:29:34;;;;;;;;;;;;;;;14.46;60.37;100097.53;5091339;28;20418;-68
2023/10/05 01:31:59;;;;;;;;;;;;;;;14.52;60.48;100102.97;5077175;28;19974;-68
2023/10/05 01:34:24;;;;;;;;;;;;;;;14.52;60.50;100109.41;5090921;28;19916;-68
2023/10/05 01:36:50;;;;;;;;;;;;;;;14.70;60.03;100101.59;5086319;28;19948;-68
2023/10/05 01:39:19;;;;;;;;;;;;;;;14.38;60.94;100101.28;5090424;28;20375;-68
2023/10/05 01:41:47;;;;;;;;;;;;;;;14.32;60.81;100102.66;5089102;28;19928;-68
2023/10/05 01:44:14;;;;;;;;;;;;;;;14.70;59.92;100110.06;5074687;28;20409;-68
2023/10/05 01:46:39;;;;;;;;;;;;;;;14.11;61.05;100111.13;5085984;28;20004;-68
2023/10/05 01:49:04;;;;;;;;;;;;;;;14.36;61.05;100114.88;5091162;28;20382;-68
2023/10/05 01:51:30;;;;;;;;;;;;;;;14.26;61.35;100118.13;5091648;28;19916;-68
2023/10/05 01:54:05;;;;;;;;;;;;;;;14.61;60.45;100117.78;5079085;28;19963;-68
2023/10/05 01:56:32;;;;;;;;;;;;;;;14.66;60.07;100117.56;5080958;28;20018;-68
2023/10/05 01:58:59;;;;;;;;;;;;;;;14.86;59.06;100118.69;5071374;28;20383;-68
2023/10/05 02:01:28;;;;;;;;;;;;;;;14.58;59.91;100121.28;5073204;28;20026;-68
2023/10/05 02:03:55;;;;;;;;;;;;;;;14.65;59.91;100124.38;5084298;28;19999;-68
2023/10/05 02:06:21;;;;;;;;;;;;;;;14.43;60.73;100123.56;5089573;28;19962;-68
2023/10/05 02:08:46;;;;;;;;;;;;;;;14.04;62.52;100128.56;5080134;28;19917;-68
2023/10/05 02:11:19;;;;;;;;;;;;;;;14.17;62.52;100129.44;5072713;28;19965;-68
2023/10/05 02:13:45;;;;;;;;;;;;;;;14.43;61.54;100128.41;5086866;28;19923;-68
2023/10/05 02:16:21;;;;;;;;;;;;;;;14.21;62.07;100135.19;5087375;28;19920;-68
2023/10/05 02:18:47;;;;;;;;;;;;;;;14.18;62.27;100140.34;5083559;28;19923;-68
2023/10/05 02:21:19;;;;;;;;;;;;;;;13.86;63.24;100139.09;5092147;28;20469;-68
2023/10/05 02:23:46;;;;;;;;;;;;;;;14.01;62.98;100134.88;5090353;28;19995;-68
2023/10/05 02:26:26;;;;;;;;;;;;;;;14.29;61.60;100139.94;5092192;28;20015;-68
2023/10/05 02:28:52;;;;;;;;;;;;;;;14.31;61.01;100143.22;5092213;28;19912;-68
2023/10/05 02:31:20;;;;;;;;;;;;;;;14.39;61.02;100144.31;5092083;28;19919;-68
2023/10/05 02:33:45;;;;;;;;;;;;;;;14.14;62.03;100145.03;5073348;28;19913;-68
2023/10/05 02:38:37;;;;;;;;;;;;;;;13.85;62.02;100146.69;5092440;28;19916;-68
2023/10/05 02:41:04;;;;;;;;;;;;;;;13.98;61.76;100153.25;5090204;28;19931;-68
2023/10/05 02:43:38;;;;;;;;;;;;;;;13.98;62.28;100146.78;5075536;28;20011;-68
2023/10/05 02:46:09;;;;;;;;;;;;;;;13.39;64.42;100154.03;5079757;28;19912;-68
2023/10/05 02:48:35;;;;;;;;;;;;;;;13.57;63.90;100152.81;5082811;28;19917;-69
2023/10/05 02:51:05;;;;;;;;;;;;;;;13.52;64.42;100152.19;5070099;28;19913;-69
2023/10/05 02:53:30;;;;;;;;;;;;;;;13.54;64.94;100149.84;5076530;28;19917;-68
2023/10/05 02:55:55;;;;;;;;;;;;;;;13.79;64.01;100156.50;5086324;28;20323;-69
2023/10/05 02:58:22;;;;;;;;;;;;;;;13.85;63.54;100149.50;5071318;28;20011;-68
2023/10/05 03:00:47;;;;;;;;;;;;;;;13.89;63.56;100156.13;5076649;28;19920;-69
2023/10/05 03:03:14;;;;;;;;;;;;;;;13.97;63.09;100142.31;5082901;28;19986;-68
2023/10/05 03:05:41;;;;;;;;;;;;;;;13.66;64.04;100154.78;5070895;28;19964;-69
2023/10/05 03:08:08;;;;;;;;;;;;;;;13.78;64.16;100152.06;5099352;28;20322;-69
2023/10/05 03:10:34;;;;;;;;;;;;;;;14.03;63.14;100161.47;5087037;28;19970;-69
2023/10/05 03:12:59;;;;;;;;;;;;;;;14.03;63.25;100150.22;5085829;28;20411;-69
2023/10/05 03:15:28;;;;;;;;;;;;;;;14.10;62.91;100152.47;5069769;28;19923;-69
2023/10/05 03:17:56;;;;;;;;;;;;;;;13.97;63.21;100160.03;5072019;28;20335;-69
2023/10/05 03:20:23;;;;;;;;;;;;;;;14.08;63.13;100152.00;5086957;28;19916;-69
2023/10/05 03:22:48;;;;;;;;;;;;;;;14.23;62.80;100158.16;5085988;28;19928;-69
2023/10/05 03:25:15;;;;;;;;;;;;;;;14.33;62.52;100157.75;5082925;28;19924;-69
2023/10/05 03:27:40;;;;;;;;;;;;;;;14.41;61.59;100159.69;5091134;28;19916;-69
2023/10/05 03:30:07;;;;;;;;;;;;;;;14.33;61.89;100160.56;5075962;28;19916;-69
2023/10/05 03:32:35;;;;;;;;;;;;;;;14.29;62.08;100157.63;5081215;28;19924;-68
2023/10/05 03:35:00;;;;;;;;;;;;;;;14.30;61.98;100159.28;5083851;28;19920;-69
2023/10/05 03:37:29;;;;;;;;;;;;;;;13.51;64.24;100154.16;5073691;28;19917;-69
2023/10/05 03:42:25;;;;;;;;;;;;;;;14.02;63.27;100161.81;5093160;28;19921;-70
2023/10/05 03:45:00;;;;;;;;;;;;;;;14.15;63.33;100169.16;5074280;28;19916;-70
2023/10/05 03:47:26;;;;;;;;;;;;;;;14.10;62.59;100163.72;5092337;28;19916;-70
2023/10/05 03:49:56;;;;;;;;;;;;;;;13.99;62.86;100166.13;5079933;28;20359;-70
2023/10/05 03:52:33;;;;;;;;;;;;;;;13.68;64.00;100170.13;5083298;28;19970;-69
2023/10/05 03:55:01;;;;;;;;;;;;;;;13.62;64.55;100168.69;5077224;28;19973;-72
2023/10/05 03:57:30;;;;;;;;;;;;;;;13.87;63.62;100177.31;5093311;28;19916;-72
2023/10/05 03:59:57;;;;;;;;;;;;;;;14.01;63.20;100171.44;5090990;28;20002;-70
2023/10/05 04:02:23;;;;;;;;;;;;;;;13.84;63.79;100164.72;5091458;28;19920;-70
2023/10/05 04:04:49;;;;;;;;;;;;;;;13.84;63.30;100175.97;5076260;28;19921;-70
2023/10/05 04:07:15;;;;;;;;;;;;;;;13.68;63.43;100175.72;5074501;28;19912;-71
2023/10/05 04:09:41;;;;;;;;;;;;;;;13.69;63.61;100168.94;5080705;28;19916;-70
2023/10/05 04:12:10;;;;;;;;;;;;;;;13.60;63.61;100168.19;5077014;28;20390;-70
2023/10/05 04:14:37;;;;;;;;;;;;;;;13.57;63.50;100163.22;5086520;28;19916;-70
2023/10/05 04:17:07;;;;;;;;;;;;;;;13.62;63.35;100171.47;5092848;28;19966;-70
2023/10/05 04:19:33;;;;;;;;;;;;;;;13.68;62.71;100183.38;5079984;28;20379;-71
2023/10/05 04:21:59;;;;;;;;;;;;;;;13.61;63.20;100178.28;5082972;28;19920;-70
2023/10/05 04:24:26;;;;;;;;;;;;;;;13.73;63.08;100183.16;5085882;28;20006;-70
2023/10/05 04:26:52;;;;;;;;;;;;;;;13.68;63.33;100175.72;5075629;28;20311;-70
2023/10/05 04:29:20;;;;;;;;;;;;;;;13.65;63.11;100164.38;5079721;28;19922;-71
2023/10/05 04:31:49;;;;;;;;;;;;;;;13.49;63.54;100167.72;5093015;28;20377;-70
2023/10/05 04:34:18;;;;;;;;;;;;;;;13.45;63.93;100176.03;5093529;28;19915;-70
2023/10/05 04:36:43;;;;;;;;;;;;;;;13.32;64.78;100171.41;5078609;28;19937;-69
2023/10/05 04:39:12;;;;;;;;;;;;;;;12.99;66.31;100184.06;5074004;28;19982;-70
2023/10/05 04:41:39;;;;;;;;;;;;;;;13.17;66.10;100175.63;5079866;28;20375;-69
2023/10/05 04:44:11;;;;;;;;;;;;;;;13.27;65.35;100180.03;5082141;28;19923;-70
2023/10/05 04:46:36;;;;;;;;;;;;;;;13.46;65.33;100182.47;5093330;28;19922;-70
2023/10/05 04:49:12;;;;;;;;;;;;;;;13.50;65.24;100177.81;5088206;28;19916;-70
2023/10/05 04:51:41;;;;;;;;;;;;;;;13.47;65.54;100186.91;5081970;28;19924;-71
2023/10/05 04:54:11;;;;;;;;;;;;;;;13.33;66.31;100178.66;5075279;28;19916;-70
2023/10/05 05:03:05;;;;;;;;;;;;;;;13.13;67.55;100185.84;5080682;28;19924;-70
2023/10/05 05:05:02;;;;;;;;;;;;;;;13.52;66.61;100197.16;5093163;28;19912;-71
2023/10/05 05:07:29;;;;;;;;;;;;;;;13.60;66.16;100199.91;5086699;28;20010;-73
2023/10/05 05:09:55;;;;;;;;;;;;;;;13.60;66.63;100199.13;5082414;28;20011;-73
2023/10/05 05:12:24;;;;;;;;;;;;;;;13.82;65.84;100200.00;5088253;28;20398;-73
2023/10/05 05:14:49;;;;;;;;;;;;;;;13.80;66.10;100203.13;5090720;28;20008;-72
2023/10/05 05:17:19;;;;;;;;;;;;;;;13.94;66.08;100197.28;5092224;28;20324;-73
2023/10/05 05:19:44;;;;;;;;;;;;;;;13.96;65.63;100199.72;5084214;28;19912;-73
2023/10/05 05:22:11;;;;;;;;;;;;;;;14.07;65.36;100194.56;5091034;28;19944;-73
2023/10/05 05:24:37;;;;;;;;;;;;;;;14.12;65.29;100205.59;5093439;28;19912;-72
2023/10/05 05:29:44;;;;;;;;;;;;;;;14.06;65.81;100199.34;5091818;28;19916;-73
2023/10/05 05:32:19;;;;;;;;;;;;;;;14.33;64.80;100202.78;5073261;28;19924;-74
2023/10/05 05:34:44;;;;;;;;;;;;;;;14.55;64.68;100198.81;5076403;28;20318;-74
2023/10/05 05:37:28;;;;;;;;;;;;;;;14.61;64.46;100202.25;5084852;28;19927;-73
2023/10/05 05:40:18;;;;;;;;;;;;;;;14.57;64.78;100212.53;5072445;28;20303;-75
2023/10/05 05:42:45;;;;;;;;;;;;;;;14.42;65.07;100217.63;5081793;28;19934;-72
2023/10/05 05:45:16;;;;;;;;;;;;;;;13.96;67.06;100217.44;5079664;28;19927;-70
2023/10/05 05:47:48;;;;;;;;;;;;;;;14.09;66.72;100226.78;5085374;28;20439;-71
2023/10/05 05:50:23;;;;;;;;;;;;;;;14.21;66.35;100228.88;5074018;28;20375;-71
2023/10/05 05:52:48;;;;;;;;;;;;;;;14.17;66.29;100225.06;5088614;28;19923;-70
2023/10/05 05:55:20;;;;;;;;;;;;;;;13.98;67.63;100226.38;5077929;28;19916;-71
2023/10/05 05:57:45;;;;;;;;;;;;;;;14.16;66.84;100224.25;5080501;28;20377;-70
2023/10/05 06:00:11;;;;;;;;;;;;;;;14.12;66.57;100223.31;5077126;28;20007;-74
2023/10/05 06:02:43;;;;;;;;;;;;;;;14.02;67.09;100234.94;5080827;28;20360;-72
2023/10/05 06:05:09;;;;;;;;;;;;;;;13.93;67.59;100239.78;5078159;28;19912;-72
2023/10/05 06:07:36;;;;;;;;;;;;;;;14.01;67.32;100248.16;5075647;28;19917;-72
2023/10/05 06:10:01;;;;;;;;;;;;;;;13.94;68.29;100242.28;5077726;28;20534;-70
2023/10/05 06:12:26;;;;;;;;;;;;;;;14.15;67.79;100235.84;5070419;28;19920;-72
2023/10/05 06:14:51;;;;;;;;;;;;;;;14.27;66.79;100247.19;5081489;28;20310;-74
2023/10/05 06:17:19;;;;;;;;;;;;;;;14.42;66.66;100240.13;5075106;28;20003;-75
2023/10/05 06:19:44;;;;;;;;;;;;;;;14.60;66.13;100251.28;5083406;28;19912;-75
2023/10/05 06:22:10;;;;;;;;;;;;;;;14.82;65.54;100257.72;5084660;28;19973;-75
2023/10/05 06:24:40;;;;;;;;;;;;;;;15.01;65.26;100254.41;5080563;28;19967;-75
2023/10/05 06:27:06;;;;;;;;;;;;;;;15.25;63.95;100264.13;5089837;28;19954;-75
2023/10/05 06:32:20;;;;;;;;;;;;;;;15.64;63.55;100270.34;5242567;23;19926;-89
2023/10/05 06:35:13;;;;;;;;;;;;;;;15.99;62.93;100267.09;4967245;28;19922;-90
2023/10/05 06:37:41;;;;;;;;;;;;;;;16.32;62.14;100276.59;4985238;28;20009;-92
2023/10/05 06:40:12;;;;;;;;;;;;;;;16.67;61.28;100276.06;4963695;28;19922;-88
2023/10/05 06:42:41;;;;;;;;;;;;;;;16.97;60.14;100270.06;4969310;28;19974;-86
2023/10/05 06:45:31;;;;;;;;;;;;;;;17.06;59.85;100266.31;4963384;28;20013;-87
2023/10/05 06:47:55;;;;;;;;;;;;;;;17.06;59.57;100264.28;4983973;28;19932;-87
2023/10/05 06:50:21;;;;;;;;;;;;;;;17.07;59.22;100274.41;4958339;28;19918;-86
2023/10/05 06:52:46;;;;;;;;;;;;;;;17.22;58.58;100275.63;4962774;28;19918;-88
2023/10/05 06:55:12;;;;;;;;;;;;;;;17.40;58.33;100270.47;4961870;28;20270;-87
2023/10/05 06:57:39;;;;;;;;;;;;;;;17.42;57.86;100270.13;4965006;28;19917;-88
2023/10/05 07:00:16;;;;;;;;;;;;;;;17.48;58.54;100263.00;4959932;28;19926;-87
2023/10/05 07:02:42;;;;;;;;;;;;;;;17.84;57.62;100265.97;4963410;28;19922;-87
2023/10/05 07:05:08;;;;;;;;;;;;;;;18.14;56.55;100271.16;4961536;28;19925;-87
2023/10/05 07:07:37;;;;;;;;;;;;;;;18.34;56.19;100271.22;4968521;28;19922;-87
2023/10/05 07:10:03;;;;;;;;;;;;;;;18.56;55.46;100266.06;4968874;28;19922;-87
2023/10/05 07:12:32;;;;;;;;;;;;;;;18.46;55.79;100265.44;4963910;28;19972;-86
2023/10/05 07:14:58;;;;;;;;;;;;;;;18.77;55.96;100269.38;4955211;28;20428;-86
2023/10/05 07:17:26;;;;;;;;;;;;;;;18.61;56.75;100266.59;4949940;28;19926;-86
2023/10/05 07:19:51;;;;;;;;;;;;;;;18.62;57.09;100268.22;4972915;28;20308;-86
2023/10/05 07:22:17;;;;;;;;;;;;;;;18.75;57.13;100263.22;4970698;28;19925;-86
2023/10/05 07:24:43;;;;;;;;;;;;;;;18.81;57.85;100263.75;4964161;28;19925;-86
2023/10/05 07:27:08;;;;;;;;;;;;;;;19.04;57.64;100258.19;4965867;28;20404;-86
2023/10/05 07:29:34;;;;;;;;;;;;;;;19.21;57.21;100258.91;4966946;28;20015;-86
2023/10/05 07:32:00;;;;;;;;;;;;;;;19.36;57.21;100254.34;4956900;28;20066;-86
2023/10/05 07:34:26;;;;;;;;;;;;;;;19.56;57.12;100251.47;4944562;28;19977;-85
2023/10/05 07:36:51;;;;;;;;;;;;;;;19.40;56.87;100260.91;4935696;28;19915;-87
2023/10/05 07:39:18;;;;;;;;;;;;;;;19.15;57.86;100247.06;4940201;28;20046;-84
2023/10/05 07:41:45;;;;;;;;;;;;;;;19.23;57.92;100256.53;4941063;28;20336;-86
2023/10/05 07:44:11;;;;;;;;;;;;;;;19.27;57.61;100256.59;4961292;28;19918;-86
2023/10/05 07:46:38;;;;;;;;;;;;;;;19.28;58.02;100253.41;4955981;28;20401;-86
2023/10/05 07:49:03;;;;;;;;;;;;;;;19.42;57.91;100246.34;4938417;28;19942;-85
2023/10/05 07:51:28;;;;;;;;;;;;;;;19.34;57.93;100253.91;4973567;28;19933;-86
2023/10/05 07:53:59;;;;;;;;;;;;;;;19.47;57.67;100243.19;4953301;28;19918;-85
2023/10/05 07:56:24;;;;;;;;;;;;;;;19.60;57.73;100256.00;4949023;29;19919;-86
2023/10/05 07:58:50;;;;;;;;;;;;;;;19.80;57.30;100252.28;4948300;28;19980;-88
2023/10/05 08:01:17;;;;;;;;;;;;;;;20.04;57.13;100251.09;4946953;28;19930;-85
2023/10/05 08:03:43;;;;;;;;;;;;;;;20.41;55.79;100239.06;4954592;28;19918;-85
2023/10/05 08:06:15;;;;;;;;;;;;;;;20.54;55.10;100244.50;4948170;28;19945;-85
2023/10/05 08:08:43;;;;;;;;;;;;;;;20.60;54.72;100231.63;4952514;28;19918;-85
2023/10/05 08:11:12;;;;;;;;;;;;;;;20.55;55.27;100234.78;4969338;28;19922;-85
2023/10/05 08:13:37;;;;;;;;;;;;;;;20.92;53.64;100230.41;4955255;28;19926;-88
2023/10/05 08:16:03;;;;;;;;;;;;;;;20.58;53.83;100226.31;4948520;28;19918;-87
2023/10/05 08:18:29;;;;;;;;;;;;;;;20.51;53.90;100234.72;4957277;28;20377;-87
2023/10/05 08:20:54;;;;;;;;;;;;;;;21.00;53.79;100221.56;4968585;28;19922;-88
2023/10/05 08:23:19;;;;;;;;;;;;;;;21.43;52.25;100226.09;4967278;28;19918;-86
2023/10/05 08:25:46;;;;;;;;;;;;;;;21.46;51.73;100223.25;4955998;28;20063;-85
2023/10/05 08:28:11;;;;;;;;;;;;;;;21.62;51.17;100216.53;4969776;28;19950;-87
2023/10/05 08:30:49;;;;;;;;;;;;;;;21.67;50.88;100224.72;4943860;28;19961;-88
2023/10/05 08:33:19;;;;;;;;;;;;;;;22.03;50.12;100221.34;4938253;29;19926;-87
2023/10/05 08:35:44;;;;;;;;;;;;;;;22.11;49.56;100220.16;4942192;28;19914;-87
2023/10/05 08:38:15;;;;;;;;;;;;;;;22.12;49.94;100223.84;4955414;28;19918;-86
2023/10/05 08:40:45;;;;;;;;;;;;;;;21.93;50.13;100217.19;4939609;29;20412;-89
2023/10/05 08:43:16;;;;;;;;;;;;;;;22.25;49.65;100216.59;4973352;28;20020;-89
2023/10/05 08:45:51;;;;;;;;;;;;;;;22.40;49.33;100219.53;4954380;28;20013;-87
2023/10/05 08:48:28;;;;;;;;;;;;;;;22.20;49.42;100214.13;4957794;28;19941;-88
2023/10/05 08:50:54;;;;;;;;;;;;;;;22.44;49.30;100214.66;4968516;28;19949;-88
2023/10/05 08:53:20;;;;;;;;;;;;;;;22.50;48.62;100212.28;4969471;28;19922;-88
2023/10/05 08:55:46;;;;;;;;;;;;;;;22.98;47.80;100208.41;4945268;28;20359;-86
2023/10/05 08:58:18;;;;;;;;;;;;;;;23.19;48.42;100204.00;4957459;28;19926;-87
2023/10/05 09:00:44;;;;;;;;;;;;;;;23.49;48.63;100205.69;4946803;28;20381;-92
2023/10/05 09:06:12;;;;;;;;;;;;;;;23.42;46.51;100195.91;4971615;28;19925;-90
2023/10/05 09:08:43;;;;;;;;;;;;;;;23.89;47.66;100194.28;4958770;28;20041;-87
2023/10/05 09:11:14;;;;;;;;;;;;;;;24.06;47.01;100192.66;4958576;28;19914;-88
2023/10/05 09:13:44;;;;;;;;;;;;;;;24.24;45.00;100199.13;4957257;28;20317;-89
2023/10/05 09:16:15;;;;;;;;;;;;;;;23.94;45.21;100191.81;4955373;28;19926;-89
2023/10/05 09:18:50;;;;;;;;;;;;;;;24.33;43.86;100195.03;4959348;28;20754;-88
2023/10/05 09:21:19;;;;;;;;;;;;;;;24.34;44.61;100190.94;4945194;28;19926;-88
2023/10/05 09:26:51;;;;;;;;;;;;;;;24.51;42.89;100184.38;4960273;28;20034;-89
2023/10/05 09:29:33;;;;;;;;;;;;;;;24.80;43.10;100192.06;4951923;28;20447;-86
2023/10/05 09:31:59;;;;;;;;;;;;;;;24.81;42.43;100182.25;4966202;28;19926;-87
2023/10/05 09:34:56;;;;;;;;;;;;;;;25.01;43.50;100182.53;4967861;28;20419;-87
2023/10/05 09:37:32;;;;;;;;;;;;;;;25.03;42.52;100182.09;4965676;28;19918;-87
2023/10/05 09:40:01;;;;;;;;;;;;;;;25.28;41.67;100172.53;4966410;28;19929;-87
2023/10/05 09:42:33;;;;;;;;;;;;;;;25.29;40.09;100163.53;4951201;29;20401;-90
2023/10/05 09:45:34;;;;;;;;;;;;;;;25.33;40.74;100161.44;4954547;28;19918;-89
2023/10/05 09:51:06;;;;;;;;;;;;;;;25.96;40.83;100156.06;4949074;28;19972;-87
2023/10/05 09:54:01;;;;;;;;;;;;;;;25.54;38.99;100156.84;4942006;29;19922;-87
2023/10/05 09:56:33;;;;;;;;;;;;;;;25.80;39.23;100145.97;4961799;28;19926;-89
2023/10/05 10:12:25;;;;;;;;;;;;;;;26.05;35.89;100124.81;4856487;29;19928;-90
2023/10/05 10:18:43;;;;;;;;;;;;;;;26.30;35.57;100118.00;4835853;29;19971;-92
2023/10/05 10:21:20;;;;;;;;;;;;;;;26.43;35.36;100110.50;4749054;30;19926;-93
2023/10/05 10:23:49;;;;;;;;;;;;;;;26.38;34.47;100110.16;4815778;29;19921;-90
2023/10/05 10:26:24;;;;;;;;;;;;;;;26.43;34.90;100103.94;4812800;29;20074;-90
2023/10/05 10:28:56;;;;;;;;;;;;;;;26.44;34.31;100102.69;4840928;29;20392;-90
2023/10/05 10:31:26;;;;;;;;;;;;;;;26.42;33.88;100091.66;4875556;29;19923;-90
2023/10/05 10:33:51;;;;;;;;;;;;;;;26.66;33.44;100088.88;4891375;29;19927;-91
2023/10/05 10:36:35;;;;;;;;;;;;;;;26.69;32.96;100085.16;4890518;29;19931;-90
2023/10/05 10:39:21;;;;;;;;;;;;;;;26.59;33.04;100077.50;4895153;29;19919;-92
2023/10/05 10:42:05;;;;;;;;;;;;;;;26.57;32.83;100071.41;4911117;29;19927;-90
2023/10/05 10:47:17;;;;;;;;;;;;;;;26.77;32.82;100071.50;4943787;28;19918;-89
2023/10/05 10:49:59;;;;;;;;;;;;;;;26.87;33.02;100064.84;4948523;28;19922;-91
2023/10/05 10:52:25;;;;;;;;;;;;;;;27.01;32.66;100060.13;4962657;28;20040;-90
2023/10/05 10:54:54;;;;;;;;;;;;;;;27.03;32.59;100060.47;4964165;28;19926;-89
2023/10/05 10:57:21;;;;;;;;;;;;;;;27.20;32.78;100049.94;4962698;28;19933;-89
2023/10/05 10:59:55;;;;;;;;;;;;;;;27.26;31.28;100051.06;4946568;28;19926;-90
2023/10/05 11:02:23;;;;;;;;;;;;;;;27.38;31.85;100048.81;4952427;28;19922;-89
2023/10/05 11:04:49;;;;;;;;;;;;;;;27.39;31.36;100044.69;4951529;29;19977;-90
2023/10/05 11:07:17;;;;;;;;;;;;;;;27.35;31.92;100046.81;4952911;28;19915;-91
2023/10/05 11:09:54;;;;;;;;;;;;;;;27.28;31.58;100042.03;4968582;28;19981;-89
2023/10/05 11:12:23;;;;;;;;;;;;;;;27.32;31.14;100042.75;4950948;29;20029;-89
2023/10/05 11:14:51;;;;;;;;;;;;;;;27.30;31.28;100030.91;4944236;29;19962;-88
2023/10/05 11:17:35;;;;;;;;;;;;;;;27.35;31.31;100038.22;4956316;28;19923;-88
2023/10/05 11:20:18;;;;;;;;;;;;;;;27.52;30.24;100021.91;4937366;29;20329;-88
2023/10/05 11:22:43;;;;;;;;;;;;;;;27.52;30.29;100028.47;4944621;29;19923;-87
2023/10/05 11:25:15;;;;;;;;;;;;;;;27.50;30.82;100028.06;4938512;29;19930;-90
2023/10/05 11:27:57;;;;;;;;;;;;;;;27.53;30.79;100021.50;4953179;29;20673;-89
2023/10/05 11:30:24;;;;;;;;;;;;;;;27.49;31.02;100020.72;4953138;29;19914;-89
2023/10/05 11:32:56;;;;;;;;;;;;;;;27.65;30.60;100010.63;4953177;28;20389;-89
2023/10/05 11:35:40;;;;;;;;;;;;;;;27.98;30.25;100013.63;4969245;28;19924;-90
2023/10/05 11:38:06;;;;;;;;;;;;;;;27.99;29.88;100012.38;4951966;28;20033;-91
2023/10/05 11:40:34;;;;;;;;;;;;;;;27.72;30.53;100011.28;4950733;29;20416;-91
2023/10/05 11:43:04;;;;;;;;;;;;;;;27.71;30.11;100003.09;4957108;28;19921;-91
2023/10/05 11:45:30;;;;;;;;;;;;;;;27.80;30.27;100016.88;4956988;29;19918;-92
2023/10/05 11:47:59;;;;;;;;;;;;;;;27.67;30.49;100011.00;4941890;28;20013;-90
2023/10/05 11:50:32;;;;;;;;;;;;;;;27.66;30.38;100006.50;4950676;28;19923;-93
2023/10/05 11:52:58;;;;;;;;;;;;;;;27.72;30.12;100001.84;4948783;29;19943;-91
2023/10/05 11:55:23;;;;;;;;;;;;;;;27.78;30.78;99997.22;4960921;28;20357;-90
2023/10/05 11:57:49;;;;;;;;;;;;;;;27.59;30.75;99996.75;4950099;28;20309;-91
2023/10/05 12:00:16;;;;;;;;;;;;;;;27.71;31.11;99994.47;4950839;28;20401;-90
2023/10/05 12:02:43;;;;;;;;;;;;;;;27.64;31.11;99997.50;4951432;28;20013;-89
2023/10/05 12:05:09;;;;;;;;;;;;;;;27.74;31.03;99996.47;4953976;28;19922;-89
2023/10/05 12:07:45;;;;;;;;;;;;;;;27.72;30.59;99988.31;4952212;28;19925;-91
2023/10/05 12:10:10;;;;;;;;;;;;;;;27.62;30.87;99989.31;4969133;28;19918;-90
2023/10/05 12:13:02;;;;;;;;;;;;;;;27.63;30.83;99990.94;4955414;28;19925;-90
2023/10/05 12:15:31;;;;;;;;;;;;;;;27.63;30.82;99987.25;4970959;28;20030;-88
2023/10/05 12:17:56;;;;;;;;;;;;;;;27.51;30.54;99986.63;4968513;28;19921;-85
2023/10/05 12:20:29;;;;;;;;;;;;;;;27.57;30.70;99984.91;4977194;28;20448;-87
2023/10/05 12:22:56;;;;;;;;;;;;;;;27.65;30.71;99981.91;4952565;29;19919;-88
2023/10/05 12:25:27;;;;;;;;;;;;;;;27.69;30.56;99980.53;4960047;28;20384;-88
2023/10/05 12:27:53;;;;;;;;;;;;;;;27.70;31.27;99972.75;4950843;28;19919;-89
2023/10/05 12:30:21;;;;;;;;;;;;;;;27.66;30.45;99966.28;4965978;28;20362;-88
2023/10/05 12:32:49;;;;;;;;;;;;;;;27.44;30.82;99969.53;4968484;28;19930;-89
2023/10/05 12:35:21;;;;;;;;;;;;;;;27.45;30.93;99969.09;4961687;28;19969;-91
2023/10/05 12:37:50;;;;;;;;;;;;;;;27.47;30.85;99957.16;4960133;28;19950;-90
2023/10/05 12:40:26;;;;;;;;;;;;;;;27.35;30.83;99958.63;4943388;28;19982;-88
2023/10/05 12:43:06;;;;;;;;;;;;;;;27.19;31.07;99956.47;4950377;29;19919;-89
2023/10/05 12:45:35;;;;;;;;;;;;;;;27.31;31.14;99952.97;4950852;29;19914;-89
2023/10/05 12:48:04;;;;;;;;;;;;;;;27.55;31.25;99949.25;4957264;28;19933;-91
2023/10/05 12:50:32;;;;;;;;;;;;;;;27.72;30.46;99935.75;4959555;29;19919;-90
2023/10/05 12:53:00;;;;;;;;;;;;;;;27.58;30.75;99934.81;4958829;28;19918;-89
2023/10/05 12:55:32;;;;;;;;;;;;;;;27.51;30.21;99931.25;4985508;28;20001;-91
2023/10/05 12:58:00;;;;;;;;;;;;;;;27.44;30.40;99935.88;4991805;28;19938;-89
2023/10/05 13:00:31;;;;;;;;;;;;;;;27.46;30.81;99929.69;4971746;28;19958;-90
2023/10/05 13:03:00;;;;;;;;;;;;;;;27.56;30.63;99934.44;4963591;28;20287;-90
2023/10/05 13:05:31;;;;;;;;;;;;;;;27.72;30.26;99930.84;4945731;28;20318;-90
2023/10/05 13:07:56;;;;;;;;;;;;;;;27.64;30.15;99934.31;4957049;29;19918;-90
2023/10/05 13:10:22;;;;;;;;;;;;;;;27.80;30.09;99925.75;4952728;28;19933;-90
2023/10/05 13:12:51;;;;;;;;;;;;;;;27.81;29.75;99917.91;4956582;28;19929;-89
2023/10/05 13:15:32;;;;;;;;;;;;;;;27.64;30.70;99922.81;4963489;28;20388;-88
2023/10/05 13:18:15;;;;;;;;;;;;;;;27.50;30.68;99913.19;4954901;29;19930;-92
2023/10/05 13:20:43;;;;;;;;;;;;;;;27.57;30.64;99915.97;4961888;29;19919;-91
2023/10/05 13:23:11;;;;;;;;;;;;;;;27.37;30.82;99915.09;4974851;28;19938;-92
2023/10/05 13:25:36;;;;;;;;;;;;;;;27.45;31.04;99905.94;4960288;28;20065;-91
2023/10/05 13:28:05;;;;;;;;;;;;;;;27.50;30.74;99913.19;4952200;28;19950;-94
2023/10/05 13:30:40;;;;;;;;;;;;;;;27.29;31.08;99917.31;4969599;28;20312;-90
2023/10/05 13:34:01;;;;;;;;;;;;;;;27.16;31.07;99905.69;4948709;28;20021;-91
2023/10/05 13:39:53;;;;;;;;;;;;;;;;;;;;;
2023/10/05 13:42:35;;;;;;;;;;;;;;;27.24;30.92;99904.28;4951337;29;20000;-95